Time;durP1;ratioP1;P1;durP2;ratioP2;P2;SDS_P1;SDS_P2;PMS_P1;PMS_P2;Temp;Humidity;BMP_temperature;BMP_pressure;BME280_temperature;BME280_humidity;BME280_pressure;Samples;Min_cycle;Max_cycle;Signal;HPM_P1;HPM_P2
2022/09/09 00:02:54;;;;;;;;;;;;;;;;;;;;;
2022/09/09 00:08:48;;;;;;;12.30;8.30;;;;;;;15.63;100.00;98320.61;220215;1279;22560;-79
2022/09/09 00:15:24;;;;;;;13.20;7.80;;;;;;;15.54;100.00;98320.80;219995;1279;24297;-79
2022/09/09 00:21:21;;;;;;;11.50;8.10;;;;;;;15.49;100.00;98325.83;220052;1280;22986;-80
2022/09/09 00:27:49;;;;;;;16.00;9.00;;;;;;;15.44;100.00;98328.99;221047;1274;22602;-80
2022/09/09 00:33:50;;;;;;;;;;;;;;;;;;;;;
2022/09/09 00:46:46;;;;;;;11.40;7.60;;;;;;;15.24;100.00;98331.43;220061;1279;24222;-80
2022/09/09 00:53:12;;;;;;;12.30;8.30;;;;;;;15.16;100.00;98338.67;220055;1279;22537;-79
2022/09/09 00:59:49;;;;;;;;;;;;;;;;;;;;;
2022/09/09 01:06:56;;;;;;;;;;;;;;;;;;;;;
2022/09/09 01:13:13;;;;;;;15.10;8.60;;;;;;;15.07;100.00;98349.98;218180;1285;23866;-79
2022/09/09 01:19:17;;;;;;;11.60;8.90;;;;;;;15.00;100.00;98356.58;219984;1279;22554;-79
2022/09/09 01:25:59;;;;;;;;;;;;;;;;;;;;;
2022/09/09 01:32:44;;;;;;;11.20;8.90;;;;;;;14.93;100.00;98365.10;221270;1273;22586;-79
2022/09/09 01:39:12;;;;;;;;;;;;;;;;;;;;;
2022/09/09 01:45:25;;;;;;;9.70;7.60;;;;;;;14.96;100.00;98368.99;217432;1273;5419097;-79
2022/09/09 01:51:44;;;;;;;;;;;;;;;;;;;;;
2022/09/09 01:58:19;;;;;;;10.60;7.50;;;;;;;14.81;100.00;98372.91;220926;1274;24305;-79
2022/09/09 02:04:29;;;;;;;9.50;7.60;;;;;;;14.72;100.00;98373.09;220877;1274;23844;-79
2022/09/09 02:10:51;;;;;;;8.90;7.40;;;;;;;14.66;100.00;98381.79;220901;1274;24211;-81
2022/09/09 02:17:06;;;;;;;13.20;8.10;;;;;;;14.63;100.00;98387.30;220934;1273;23284;-79
2022/09/09 02:23:02;;;;;;;;;;;;;;;;;;;;;
2022/09/09 02:29:52;;;;;;;;;;;;;;;;;;;;;
2022/09/09 02:36:32;;;;;;;8.60;6.50;;;;;;;14.53;100.00;98404.92;220982;1272;25003;-79
2022/09/09 02:41:47;;;;;;;9.00;7.30;;;;;;;14.53;100.00;98402.60;221330;1273;24027;-78
2022/09/09 02:48:35;;;;;;;;;;;;;;;;;;;;;
2022/09/09 02:54:43;;;;;;;8.00;6.20;;;;;;;14.37;100.00;98405.02;220916;1273;22586;-79
2022/09/09 03:07:14;;;;;;;;;;;;;;;;;;;;;
2022/09/09 03:13:53;;;;;;;7.70;6.60;;;;;;;14.11;100.00;98414.51;221429;1273;22546;-80
2022/09/09 03:20:22;;;;;;;;;;;;;;;;;;;;;
2022/09/09 03:26:14;;;;;;;7.60;6.40;;;;;;;13.94;100.00;98412.38;221340;1273;22671;-80
2022/09/09 03:31:59;;;;;;;10.20;6.70;;;;;;;13.87;100.00;98421.80;220588;1277;25490;-80
2022/09/09 03:38:06;;;;;;;7.70;6.70;;;;;;;13.78;100.00;98422.30;220403;1277;24260;-80
2022/09/09 03:44:52;;;;;;;8.90;7.20;;;;;;;13.69;100.00;98432.85;220539;1277;22551;-79
2022/09/09 03:51:11;;;;;;;10.70;7.70;;;;;;;13.63;100.00;98440.12;220448;1277;22658;-80
2022/09/09 03:57:46;;;;;;;11.50;7.60;;;;;;;13.55;100.00;98448.46;220452;1277;24344;-80
2022/09/09 04:04:12;;;;;;;;;;;;;;;;;;;;;
2022/09/09 04:09:51;;;;;;;;;;;;;;;;;;;;;
2022/09/09 04:15:36;;;;;;;12.10;9.00;;;;;;;13.50;100.00;98450.87;220536;1277;22577;-80
2022/09/09 04:21:23;;;;;;;;;;;;;;;;;;;;;
2022/09/09 04:27:31;;;;;;;14.00;9.60;;;;;;;13.39;100.00;98451.80;219670;1284;22614;-80
2022/09/09 04:33:31;;;;;;;14.50;9.70;;;;;;;13.35;100.00;98449.64;219009;1284;23754;-80
2022/09/09 04:39:41;;;;;;;13.40;10.00;;;;;;;13.34;100.00;98446.48;219250;1284;23342;-80
2022/09/09 04:45:52;;;;;;;17.80;12.30;;;;;;;13.39;100.00;98451.95;219779;1284;22664;-79
2022/09/09 04:51:57;;;;;;;16.70;11.90;;;;;;;13.46;100.00;98449.34;219768;1283;24434;-80
2022/09/09 04:57:43;;;;;;;20.20;12.90;;;;;;;13.52;100.00;98452.86;219990;1279;22562;-79
2022/09/09 05:03:59;;;;;;;15.80;12.20;;;;;;;13.60;100.00;98457.36;220114;1279;25393;-81
2022/09/09 05:10:03;;;;;;;19.00;12.30;;;;;;;13.68;100.00;98461.36;219274;1284;26481;-80
2022/09/09 05:15:50;;;;;;;18.00;12.40;;;;;;;13.77;100.00;98468.89;219646;1282;25342;-81
2022/09/09 05:21:54;;;;;;;20.70;13.20;;;;;;;13.88;100.00;98476.27;201860;1276;1003903;-79
2022/09/09 05:28:00;;;;;;;27.10;16.10;;;;;;;13.98;100.00;98479.12;110176;1273;1017041;-78
2022/09/09 05:33:59;;;;;;;24.00;16.30;;;;;;;14.12;100.00;98476.73;110433;1273;1019147;-80
2022/09/09 05:40:17;;;;;;;26.20;15.70;;;;;;;14.26;100.00;98477.64;164973;1274;1016425;-79
2022/09/09 05:45:50;;;;;;;;;;;;;;;;;;;;;
2022/09/09 05:51:29;;;;;;;18.10;13.20;;;;;;;14.48;100.00;98482.02;221378;1274;22566;-79
2022/09/09 05:57:01;;;;;;;18.90;11.80;;;;;;;14.58;100.00;98486.98;220933;1274;24486;-82
2022/09/09 06:02:36;;;;;;;16.50;12.10;;;;;;;14.68;100.00;98481.64;221034;1272;23221;-80
2022/09/09 06:08:44;;;;;;;18.50;12.00;;;;;;;14.83;100.00;98487.30;219797;1273;1003136;-80
2022/09/09 06:14:30;;;;;;;;;;;;;;;;;;;;;
2022/09/09 06:20:09;;;;;;;11.70;9.50;;;;;;;15.09;100.00;98483.52;222038;1273;23448;-80
2022/09/09 06:25:48;;;;;;;10.40;9.00;;;;;;;15.21;100.00;98485.98;221967;1273;24085;-78
2022/09/09 06:31:42;;;;;;;14.30;9.60;;;;;;;15.37;100.00;98490.60;222249;1273;24435;-77
2022/09/09 06:37:48;;;;;;;17.20;9.80;;;;;;;15.54;100.00;98483.13;221951;1273;22913;-78
2022/09/09 06:43:54;;;;;;;12.90;9.40;;;;;;;15.70;100.00;98486.34;222046;1273;22581;-78
2022/09/09 06:50:17;;;;;;;;;;;;;;;;;;;;;
2022/09/09 06:56:24;;;;;;;8.80;7.50;;;;;;;16.03;100.00;98480.55;220948;1274;22608;-76
2022/09/09 07:02:56;;;;;;;13.30;8.60;;;;;;;16.18;100.00;98475.35;221755;1273;24303;-77
2022/09/09 07:09:06;;;;;;;10.90;8.60;;;;;;;16.31;100.00;98474.71;221755;1273;22985;-78
2022/09/09 07:14:52;;;;;;;8.20;7.10;;;;;;;16.48;100.00;98476.82;220612;1273;24245;-78
2022/09/09 07:21:11;;;;;;;10.10;7.50;;;;;;;16.61;100.00;98476.98;222234;1273;22608;-78
2022/09/09 07:27:06;;;;;;;12.10;7.10;;;;;;;16.72;100.00;98478.56;221800;1273;22619;-75
2022/09/09 07:32:46;;;;;;;11.60;7.60;;;;;;;16.88;100.00;98486.02;222070;1273;23832;-77
2022/09/09 07:39:04;;;;;;;;;;;;;;;;;;;;;
2022/09/09 07:44:55;;;;;;;12.10;8.20;;;;;;;17.29;100.00;98490.13;110182;1274;1016590;-75
2022/09/09 07:51:08;;;;;;;;;;;;;;;;;;;;;
2022/09/09 07:57:16;;;;;;;8.00;6.90;;;;;;;17.62;100.00;98503.11;221280;1273;25306;-74
2022/09/09 08:02:50;;;;;;;11.60;6.20;;;;;;;17.78;100.00;98506.73;221279;1273;25598;-73
2022/09/09 08:08:00;;;;;;;7.80;5.90;;;;;;;17.96;100.00;98508.98;220977;1273;25415;-73
2022/09/09 08:13:39;;;;;;;;;;;;;;;;;;;;;
2022/09/09 08:19:25;;;;;;;;;;;;;;;;;;;;;
2022/09/09 08:24:42;;;;;;;4.80;3.90;;;;;;;18.88;100.00;98508.16;220825;1273;25381;-74
2022/09/09 08:29:56;;;;;;;5.00;3.70;;;;;;;19.05;100.00;98518.73;220425;1273;22574;-75
2022/09/09 08:35:00;;;;;;;4.70;4.00;;;;;;;19.21;100.00;98517.11;220955;1273;22720;-73
2022/09/09 08:40:37;;;;;;;5.80;4.40;;;;;;;19.42;100.00;98514.86;220067;1276;22592;-77
2022/09/09 08:46:08;;;;;;;5.20;3.60;;;;;;;19.70;100.00;98524.87;220382;1276;25066;-74
2022/09/09 08:51:39;;;;;;;4.50;4.00;;;;;;;19.95;100.00;98527.19;219560;1281;22598;-76
2022/09/09 08:56:56;;;;;;;4.50;3.30;;;;;;;20.22;100.00;98526.05;219456;1281;22732;-77
2022/09/09 09:02:30;;;;;;;;;;;;;;;20.37;98.94;98532.84;219233;1281;22507;-77
2022/09/09 09:08:43;;;;;;;4.00;3.10;;;;;;;20.37;97.20;98525.46;219573;1281;24308;-76
2022/09/09 09:14:44;;;;;;;3.50;3.20;;;;;;;20.51;96.33;98526.90;219578;1278;22635;-75
2022/09/09 09:20:12;;;;;;;5.50;3.10;;;;;;;20.60;94.37;98523.40;219840;1276;22559;-76
2022/09/09 09:25:31;;;;;;;4.50;3.80;;;;;;;20.76;93.40;98515.61;220770;1273;23034;-76
2022/09/09 09:31:13;;;;;;;4.80;3.10;;;;;;;20.90;92.77;98518.88;221060;1273;22637;-75
2022/09/09 09:37:07;;;;;;;3.90;3.00;;;;;;;21.13;92.84;98514.98;220791;1273;22722;-76
2022/09/09 09:42:23;;;;;;;5.40;3.30;;;;;;;21.37;92.69;98520.48;221497;1273;25029;-75
2022/09/09 09:47:48;;;;;;;4.40;4.00;;;;;;;21.62;92.11;98530.90;220628;1274;22547;-76
2022/09/09 09:53:39;;;;;;;5.40;3.30;;;;;;;21.69;90.17;98524.92;220817;1274;24205;-76
2022/09/09 09:59:22;;;;;;;4.10;3.80;;;;;;;21.74;88.54;98518.76;220139;1276;22496;-76
2022/09/09 10:04:43;;;;;;;6.30;4.00;;;;;;;21.98;89.83;98521.02;220216;1276;22537;-76
2022/09/09 10:10:15;;;;;;;5.60;5.00;;;;;;;22.23;89.27;98527.62;219820;1279;22530;-76
2022/09/09 10:16:04;;;;;;;4.80;4.10;;;;;;;22.29;86.92;98532.67;219548;1279;26577;-74
2022/09/09 10:21:44;;;;;;;3.20;2.80;;;;;;;22.11;85.42;98543.29;219993;1276;23969;-75
2022/09/09 10:27:46;;;;;;;4.30;3.90;;;;;;;21.98;84.20;98547.64;220321;1276;25481;-76
2022/09/09 10:34:17;;;;;;;3.70;2.30;;;;;;;22.06;82.69;98567.02;220325;1276;22780;-76
2022/09/09 10:40:11;;;;;;;3.20;2.80;;;;;;;22.31;83.70;98561.78;219620;1281;24490;-76
2022/09/09 10:45:52;;;;;;;3.50;3.20;;;;;;;22.71;82.82;98559.33;220386;1274;22832;-77
2022/09/09 10:51:26;;;;;;;4.20;3.80;;;;;;;22.95;80.82;98556.45;220469;1275;24218;-76
2022/09/09 10:57:32;;;;;;;6.20;3.90;;;;;;;22.77;79.53;98555.35;220432;1274;22704;-76
2022/09/09 11:02:50;;;;;;;7.70;6.90;;;;;;;22.61;80.95;98556.83;220359;1274;24238;-76
2022/09/09 11:08:12;;;;;;;3.00;2.60;;;;;;;22.65;79.58;98553.50;220683;1273;22654;-76
2022/09/09 11:14:17;;;;;;;2.50;2.30;;;;;;;22.66;77.40;98547.90;221250;1273;23841;-75
2022/09/09 11:19:46;;;;;;;2.20;2.00;;;;;;;22.80;77.59;98546.71;220802;1273;22956;-76
2022/09/09 11:25:26;;;;;;;2.80;2.50;;;;;;;22.83;76.61;98553.92;220936;1273;24273;-80
2022/09/09 11:31:26;;;;;;;2.20;2.00;;;;;;;22.96;76.06;98557.00;220491;1275;25396;-76
2022/09/09 11:37:32;;;;;;;2.90;1.90;;;;;;;23.11;72.54;98556.28;221023;1273;22748;-77
2022/09/09 11:43:24;;;;;;;2.70;1.70;;;;;;;23.30;72.89;98559.89;220935;1273;22724;-77
2022/09/09 11:49:00;;;;;;;5.10;3.20;;;;;;;23.64;71.42;98555.11;220891;1273;23942;-77
2022/09/09 11:54:49;;;;;;;2.30;1.80;;;;;;;23.71;70.99;98553.59;220889;1273;22625;-77
2022/09/09 12:00:01;;;;;;;3.10;2.60;;;;;;;23.82;70.44;98555.77;220880;1273;22473;-77
2022/09/09 12:05:48;;;;;;;1.80;1.70;;;;;;;23.91;70.13;98549.98;220671;1274;22665;-77
2022/09/09 12:11:31;;;;;;;2.50;1.50;;;;;;;23.95;69.17;98550.86;220600;1274;26376;-79
2022/09/09 12:16:39;;;;;;;2.30;1.30;;;;;;;23.89;67.98;98555.05;220661;1273;24264;-77
2022/09/09 12:22:22;;;;;;;1.50;1.40;;;;;;;23.66;67.32;98550.12;221118;1273;25325;-76
2022/09/09 12:27:37;;;;;;;2.60;2.40;;;;;;;23.65;68.44;98548.25;220734;1273;25293;-76
2022/09/09 12:33:06;;;;;;;3.00;1.90;;;;;;;23.85;68.91;98556.02;220656;1274;22704;-76
2022/09/09 12:38:30;;;;;;;2.00;1.80;;;;;;;23.99;68.43;98559.86;220561;1274;22583;-75
2022/09/09 12:43:36;;;;;;;2.90;1.70;;;;;;;24.05;66.51;98557.16;220901;1273;25559;-74
2022/09/09 12:48:59;;;;;;;4.60;4.20;;;;;;;23.96;66.23;98552.59;220680;1273;22543;-75
2022/09/09 12:54:53;;;;;;;2.00;1.70;;;;;;;24.03;66.09;98555.67;220784;1273;22604;-76
2022/09/09 13:00:20;;;;;;;36.40;31.80;;;;;;;23.96;65.56;98554.52;221043;1273;25382;-77
2022/09/09 13:06:00;;;;;;;4.20;3.30;;;;;;;23.74;65.15;98543.44;220727;1275;24392;-76
2022/09/09 13:11:59;;;;;;;44.60;38.80;;;;;;;23.58;65.45;98534.06;220439;1274;25333;-76
2022/09/09 13:17:22;;;;;;;16.80;15.10;;;;;;;23.69;66.10;98525.38;220941;1273;24237;-76
2022/09/09 13:22:54;;;;;;;6.40;3.70;;;;;;;23.66;65.17;98522.23;220698;1275;25460;-76
2022/09/09 13:28:25;;;;;;;20.40;16.90;;;;;;;23.60;65.08;98521.59;220772;1273;22709;-76
2022/09/09 13:33:57;;;;;;;24.60;17.90;;;;;;;23.51;64.63;98512.08;220452;1273;22536;-78
2022/09/09 13:39:22;;;;;;;3.50;2.10;;;;;;;23.39;62.72;98508.89;220860;1273;25307;-78
2022/09/09 13:44:52;;;;;;;2.50;1.80;;;;;;;23.32;62.75;98503.05;216869;1273;5357469;-77
2022/09/09 13:50:19;;;;;;;10.40;7.30;;;;;;;23.49;64.00;98487.55;220775;1273;22563;-76
2022/09/09 13:55:33;;;;;;;6.90;2.70;;;;;;;23.65;62.79;98488.25;220732;1273;22719;-76
2022/09/09 14:00:57;;;;;;;1.30;1.20;;;;;;;23.67;61.88;98483.33;220473;1275;22569;-76
2022/09/09 14:06:18;;;;;;;1.60;1.20;;;;;;;23.60;59.96;98485.73;213437;1275;1004960;-76
2022/09/09 14:11:46;;;;;;;;;;;;;;;;;;;;;
2022/09/09 14:17:04;;;;;;;2.70;1.20;;;;;;;23.64;61.50;98480.27;220469;1274;24371;-77
2022/09/09 14:22:44;;;;;;;3.40;2.50;;;;;;;23.70;61.61;98478.75;220514;1275;22594;-76
2022/09/09 14:28:31;;;;;;;;;;;;;;;;;;;;;
2022/09/09 14:40:16;;;;;;;6.10;2.00;;;;;;;23.89;59.18;98469.23;156012;1275;1006401;-77
2022/09/09 14:45:47;;;;;;;;;;;;;;;;;;;;;
2022/09/09 14:51:18;;;;;;;1.10;1.00;;;;;;;23.69;57.86;98469.67;109990;1273;1018554;-77
2022/09/09 14:56:26;;;;;;;2.30;1.40;;;;;;;23.52;59.13;98470.84;109824;1275;1017642;-78
2022/09/09 15:01:38;;;;;;;1.30;1.20;;;;;;;23.46;59.47;98467.92;109840;1275;1016739;-77
2022/09/09 15:06:49;;;;;;;1.60;1.50;;;;;;;23.25;59.94;98473.35;109893;1275;1018469;-76
2022/09/09 15:12:20;;;;;;;2.20;1.70;;;;;;;23.02;59.83;98478.45;120298;1275;2002876;-77
2022/09/09 15:17:28;;;;;;;1.50;1.40;;;;;;;22.81;61.14;98477.91;220256;1275;24264;-77
2022/09/09 15:22:36;;;;;;;2.90;1.30;;;;;;;22.76;62.18;98476.30;220230;1274;24247;-78
2022/09/09 15:28:02;;;;;;;3.60;2.60;;;;;;;22.75;63.38;98465.21;220117;1274;23845;-77
2022/09/09 15:33:17;;;;;;;1.80;1.50;;;;;;;22.70;62.78;98477.75;220449;1274;24387;-76
2022/09/09 15:38:57;;;;;;;1.20;1.10;;;;;;;22.57;62.18;98484.16;220373;1275;22616;-77
2022/09/09 15:44:45;;;;;;;4.20;1.50;;;;;;;22.42;62.07;98486.60;109927;1277;1016401;-77
2022/09/09 15:49:51;;;;;;;2.10;1.90;;;;;;;22.24;62.56;98479.84;109773;1276;1016698;-76
2022/09/09 15:55:00;;;;;;;4.20;2.00;;;;;;;22.13;63.52;98488.61;109917;1275;1016244;-76
2022/09/09 16:00:04;;;;;;;2.30;2.00;;;;;;;22.06;64.80;98481.20;142914;1277;1016806;-77
2022/09/09 16:05:07;;;;;;;3.70;1.40;;;;;;;22.00;65.15;98468.83;220204;1275;22541;-77
2022/09/09 16:10:18;;;;;;;4.90;1.70;;;;;;;21.89;65.61;98467.84;220370;1273;22528;-78
2022/09/09 16:15:24;;;;;;;1.80;1.70;;;;;;;21.79;65.71;98466.02;220569;1273;25345;-77
2022/09/09 16:21:13;;;;;;;2.10;1.60;;;;;;;21.64;66.58;98459.98;218442;1274;1004773;-78
2022/09/09 16:26:44;;;;;;;3.50;1.90;;;;;;;21.50;67.66;98459.32;220805;1274;24287;-77
2022/09/09 16:32:11;;;;;;;3.60;2.10;;;;;;;21.34;68.11;98446.87;220392;1274;24545;-76
2022/09/09 16:37:24;;;;;;;3.00;2.00;;;;;;;21.17;68.70;98451.15;220413;1274;22551;-76
2022/09/09 16:42:43;;;;;;;2.20;1.80;;;;;;;20.98;69.56;98453.90;220586;1274;24374;-79
2022/09/09 16:54:33;;;;;;;2.50;2.20;;;;;;;20.52;71.36;98457.02;220238;1274;22547;-77
2022/09/09 17:00:03;;;;;;;3.80;2.30;;;;;;;20.27;71.95;98449.98;220293;1274;22575;-79
2022/09/09 17:05:34;;;;;;;3.10;2.00;;;;;;;20.08;72.74;98450.77;220304;1274;25397;-76
2022/09/09 17:10:58;;;;;;;3.10;2.50;;;;;;;19.90;73.42;98456.12;220145;1274;22929;-77
2022/09/09 17:16:41;;;;;;;;;;;;;;;;;;;;;
2022/09/09 17:22:05;;;;;;;5.10;2.30;;;;;;;19.54;75.15;98462.27;220144;1274;25353;-76
2022/09/09 17:28:03;;;;;;;11.00;3.40;;;;;;;19.36;75.65;98461.49;220297;1274;23064;-77
2022/09/09 17:33:58;;;;;;;5.00;2.70;;;;;;;19.17;76.54;98461.70;224979;1264;22491;31
2022/09/09 17:39:41;;;;;;;;;;;;;;;;;;;;;
2022/09/09 17:45:46;;;;;;;4.80;3.20;;;;;;;18.88;78.10;98464.59;220003;1276;22490;-80
2022/09/09 17:51:29;;;;;;;6.60;3.70;;;;;;;18.74;78.20;98466.86;219619;1277;22589;-78
2022/09/09 17:57:33;;;;;;;5.20;3.60;;;;;;;18.62;78.88;98470.91;219619;1277;22616;-79
2022/09/09 18:03:04;;;;;;;6.00;3.60;;;;;;;18.51;79.65;98468.69;219844;1277;22674;-79
2022/09/09 18:08:09;;;;;;;4.80;2.90;;;;;;;18.42;79.88;98465.91;219894;1276;22602;-79
2022/09/09 18:13:31;;;;;;;5.80;3.00;;;;;;;18.31;78.88;98469.19;171380;1277;1005283;-77
2022/09/09 18:19:12;;;;;;;4.00;3.20;;;;;;;18.25;79.63;98473.38;109777;1277;1018930;-78
2022/09/09 18:24:21;;;;;;;4.60;3.40;;;;;;;18.21;80.08;98478.07;109620;1278;1016273;-78
2022/09/09 18:29:33;;;;;;;9.20;3.80;;;;;;;18.18;80.31;98488.66;109836;1276;1016797;-78
2022/09/09 18:34:38;;;;;;;5.00;3.60;;;;;;;18.13;80.24;98492.50;109698;1278;1020154;-78
2022/09/09 18:40:01;;;;;;;7.90;4.10;;;;;;;18.10;80.61;98497.11;109762;1276;1016352;-80
2022/09/09 18:45:36;;;;;;;9.60;4.90;;;;;;;18.06;80.60;98498.80;109837;1278;1016910;-79
2022/09/09 18:50:54;;;;;;;8.80;5.70;;;;;;;18.03;80.97;98507.77;109805;1277;1016883;-79
2022/09/09 18:56:35;;;;;;;11.50;6.70;;;;;;;18.01;81.56;98508.35;109810;1278;1019383;-79
2022/09/09 19:02:05;;;;;;;9.30;7.80;;;;;;;18.00;82.44;98509.30;109749;1278;1016574;-80
2022/09/09 19:08:02;;;;;;;11.20;8.00;;;;;;;17.97;83.17;98508.98;109621;1279;1018897;-78
2022/09/09 19:13:23;;;;;;;11.50;7.90;;;;;;;17.93;83.92;98504.02;109607;1279;1016560;-78
2022/09/09 19:19:15;;;;;;;;;;;;;;;;;;;;;
2022/09/09 19:24:50;;;;;;;11.40;8.70;;;;;;;17.81;85.26;98503.17;219203;1279;22780;-78
2022/09/09 19:30:29;;;;;;;12.80;7.70;;;;;;;17.70;85.72;98499.61;219014;1282;24251;-78
2022/09/09 19:36:07;;;;;;;11.50;7.40;;;;;;;17.60;86.32;98497.70;219204;1281;22549;-79
2022/09/09 19:41:19;;;;;;;16.00;8.40;;;;;;;17.52;86.64;98500.03;219268;1281;22559;-79
2022/09/09 19:46:48;;;;;;;12.40;8.90;;;;;;;17.43;87.06;98498.22;219263;1281;23020;-78
2022/09/09 19:52:39;;;;;;;11.10;7.70;;;;;;;17.34;87.45;98495.84;218968;1284;22560;-79
2022/09/09 19:58:14;;;;;;;10.90;8.10;;;;;;;17.26;88.02;98496.23;218758;1281;25219;-79
2022/09/09 20:03:19;;;;;;;14.60;9.20;;;;;;;17.21;88.25;98497.45;219284;1281;22546;-79
2022/09/09 20:08:54;;;;;;;;;;;;;;;;;;;;;
2022/09/09 20:14:19;;;;;;;15.60;9.60;;;;;;;17.04;88.35;98504.44;219313;1276;24225;-79
2022/09/09 20:20:08;;;;;;;10.90;8.80;;;;;;;16.97;88.57;98501.09;219902;1276;25388;-79
2022/09/09 20:25:47;;;;;;;17.10;11.20;;;;;;;16.87;88.80;98497.60;219856;1276;25573;-79
2022/09/09 20:31:21;;;;;;;16.40;11.50;;;;;;;16.77;89.08;98499.73;219831;1276;25420;-79
2022/09/09 20:37:23;;;;;;;;;;;;;;;;;;;;;
2022/09/09 20:43:00;;;;;;;15.40;10.90;;;;;;;16.59;89.83;98497.13;220895;1276;23794;-78
2022/09/09 20:48:08;;;;;;;15.40;11.50;;;;;;;16.54;90.01;98497.89;220000;1276;25407;-80
2022/09/09 20:53:14;;;;;;;15.00;11.80;;;;;;;16.47;90.36;98492.70;219941;1277;22569;-79
2022/09/09 20:59:10;;;;;;;;;;;;;;;;;;;;;
2022/09/09 21:04:40;;;;;;;;;;;;;;;;;;;;;
2022/09/09 21:10:19;;;;;;;18.00;11.40;;;;;;;16.34;90.80;98490.48;219064;1284;22575;-80
2022/09/09 21:16:02;;;;;;;18.20;11.80;;;;;;;16.27;91.02;98487.77;219464;1282;22551;-79
2022/09/09 21:22:06;;;;;;;15.30;11.30;;;;;;;16.19;91.42;98487.83;218965;1282;25354;-79
2022/09/09 21:28:04;;;;;;;;;;;;;;;;;;;;;
2022/09/09 21:33:45;;;;;;;15.00;11.20;;;;;;;16.03;91.98;98492.20;219662;1276;25518;-79
2022/09/09 21:38:57;;;;;;;15.30;10.10;;;;;;;15.98;92.32;98487.85;219791;1276;24229;-79
2022/09/09 21:50:08;;;;;;;12.30;8.80;;;;;;;15.92;92.29;98489.19;219717;1278;22569;-80
2022/09/09 21:55:28;;;;;;;10.60;8.50;;;;;;;15.90;92.03;98485.18;219712;1276;22573;-79
2022/09/09 22:00:33;;;;;;;14.80;9.50;;;;;;;15.90;91.91;98489.65;219860;1276;24277;-79
2022/09/09 22:05:58;;;;;;;9.90;7.60;;;;;;;15.93;92.15;98492.35;219501;1279;22589;-80
2022/09/09 22:11:30;;;;;;;11.80;8.40;;;;;;;15.99;92.30;98488.88;219518;1278;22573;-79
2022/09/09 22:16:44;;;;;;;11.10;7.30;;;;;;;16.02;92.43;98491.09;219853;1278;22567;-79
2022/09/09 22:21:59;;;;;;;9.60;6.60;;;;;;;16.05;92.73;98489.11;219813;1278;22569;-79
2022/09/09 22:27:14;;;;;;;;;;;;;;;;;;;;;
2022/09/09 22:32:17;;;;;;;9.60;6.80;;;;;;;16.05;93.20;98496.73;219821;1278;24329;-81
2022/09/09 22:37:26;;;;;;;9.90;7.20;;;;;;;16.04;93.51;98497.24;219734;1277;22681;-79
2022/09/09 22:42:40;;;;;;;17.90;8.70;;;;;;;16.01;93.51;98503.46;219300;1279;22584;-79
2022/09/09 22:48:27;;;;;;;12.50;8.80;;;;;;;15.97;93.73;98518.13;139536;1276;1016814;-79
2022/09/09 22:54:05;;;;;;;13.50;7.70;;;;;;;15.88;93.54;98510.32;109792;1278;1016646;-78
2022/09/09 22:59:38;;;;;;;12.70;9.10;;;;;;;15.87;93.41;98510.08;109813;1278;1018343;-79
2022/09/09 23:05:42;;;;;;;10.50;7.50;;;;;;;15.88;93.50;98512.41;109781;1278;1017915;-79
2022/09/09 23:11:08;;;;;;;7.40;6.00;;;;;;;15.85;93.63;98524.80;109784;1277;1018862;-78
2022/09/09 23:16:46;;;;;;;11.80;7.90;;;;;;;15.83;93.49;98523.83;109090;1284;1016048;-78
2022/09/09 23:21:51;;;;;;;8.10;6.20;;;;;;;15.86;93.48;98525.70;162161;1284;1016743;-79
2022/09/09 23:27:26;;;;;;;10.40;6.10;;;;;;;15.87;93.42;98524.56;218678;1284;22585;-79
2022/09/09 23:33:00;;;;;;;5.30;4.20;;;;;;;15.86;93.58;98521.77;219292;1284;25273;-79
2022/09/09 23:38:37;;;;;;;;;;;;;;;15.84;93.80;98500.23;218059;1287;24591;-79
2022/09/09 23:44:59;;;;;;;;;;;;;;;;;;;;;
2022/09/09 23:50:42;;;;;;;7.70;5.00;;;;;;;15.62;94.81;98388.25;219435;1281;22586;-79
2022/09/09 23:56:31;;;;;;;7.10;4.20;;;;;;;15.43;95.46;98409.36;219446;1284;22574;-82
